PRMFG SNKI-SBFN
Flight info
| Callsign | PRMFG |
|---|---|
| Flight time | N/A |
| Altitude | 41000 |
| Route | DOGSU DCT UGPAR UZ42 SAVBI UZ16 OSUNO DCT DAKEN UZ73 TEMEV UZ23 ANBEX DCT ESGUM DCT FN364 DCT FN366 DCT FN367 |
| Aircraft | C25C/M-SDE2E3FGHRWXY/LB1 |
Departure
| Time | 2026-05-05 18:38 |
|---|---|
| Airport | Cachoeiro do Itapemirim - Raimundo de Andrade Airport (SNKI) |
Arrival
| Time | N/A |
|---|---|
| Airport | Fernando de Noronha Airport (SBFN) |
| Time | Latitude | Longitude | Altitude | Speed | Heading |
|---|---|---|---|---|---|
| 2026-05-05 18:31 | -20.83634 | -41.18818 | 268 ft | 0 kts | 312° |
| 2026-05-05 18:35 | -20.83633 | -41.18818 | 268 ft | 0 kts | 310° |
| 2026-05-05 18:35 | -20.83632 | -41.18822 | 268 ft | 1 kts | 289° |
| 2026-05-05 18:36 | -20.83633 | -41.18830 | 268 ft | 0 kts | 238° |
| 2026-05-05 18:36 | -20.83637 | -41.18835 | 269 ft | 3 kts | 220° |
| 2026-05-05 18:36 | -20.83670 | -41.18823 | 271 ft | 7 kts | 138° |
| 2026-05-05 18:36 | -20.83721 | -41.18806 | 273 ft | 10 kts | 203° |
| 2026-05-05 18:37 | -20.83790 | -41.18848 | 278 ft | 13 kts | 218° |
| 2026-05-05 18:37 | -20.83882 | -41.18894 | 285 ft | 17 kts | 186° |
| 2026-05-05 18:37 | -20.83896 | -41.18942 | 289 ft | 2 kts | 42° |
| 2026-05-05 18:37 | -20.83829 | -41.18880 | 281 ft | 50 kts | 38° |
| 2026-05-05 18:38 | -20.83289 | -41.18438 | 259 ft | 140 kts | 41° |
| 2026-05-05 18:38 | -20.82465 | -41.17710 | 1018 ft | 154 kts | 38° |
| 2026-05-05 18:38 | -20.81548 | -41.17188 | 2293 ft | 152 kts | 27° |
| 2026-05-05 18:38 | -20.80515 | -41.17128 | 3460 ft | 155 kts | 329° |
| 2026-05-05 18:39 | -20.79599 | -41.17871 | 4441 ft | 178 kts | 323° |
| 2026-05-05 18:39 | -20.78558 | -41.18756 | 5305 ft | 204 kts | 317° |
| 2026-05-05 18:39 | -20.77512 | -41.19877 | 6179 ft | 228 kts | 313° |
| 2026-05-05 18:39 | -20.76348 | -41.21157 | 6984 ft | 251 kts | 313° |
| 2026-05-05 18:40 | -20.75077 | -41.22558 | 7477 ft | 275 kts | 313° |
| 2026-05-05 18:40 | -20.73709 | -41.24069 | 8187 ft | 285 kts | 313° |
| 2026-05-05 18:40 | -20.72337 | -41.25613 | 9137 ft | 288 kts | 312° |
| 2026-05-05 18:40 | -20.70891 | -41.27117 | 10040 ft | 293 kts | 319° |
| 2026-05-05 18:41 | -20.69217 | -41.28380 | 10873 ft | 296 kts | 327° |
| 2026-05-05 18:41 | -20.67375 | -41.29382 | 11668 ft | 300 kts | 343° |
| 2026-05-05 18:41 | -20.65289 | -41.29854 | 12100 ft | 318 kts | 349° |
| 2026-05-05 18:41 | -20.63027 | -41.30306 | 12158 ft | 344 kts | 348° |
| 2026-05-05 18:42 | -20.60633 | -41.30925 | 12461 ft | 357 kts | 344° |
| 2026-05-05 18:42 | -20.58258 | -41.31651 | 13308 ft | 353 kts | 344° |
| 2026-05-05 18:42 | -20.55883 | -41.32325 | 14061 ft | 352 kts | 345° |
| 2026-05-05 18:42 | -20.53510 | -41.32957 | 14705 ft | 352 kts | 345° |
| 2026-05-05 18:43 | -20.51129 | -41.33608 | 15367 ft | 352 kts | 345° |
| 2026-05-05 18:43 | -20.48758 | -41.34270 | 16034 ft | 353 kts | 345° |
| 2026-05-05 18:43 | -20.46384 | -41.34931 | 16706 ft | 353 kts | 345° |
| 2026-05-05 18:43 | -20.44008 | -41.35585 | 17366 ft | 353 kts | 345° |
| 2026-05-05 18:44 | -20.41622 | -41.36243 | 18029 ft | 354 kts | 344° |
| 2026-05-05 18:44 | -20.39239 | -41.36901 | 18690 ft | 354 kts | 344° |
| 2026-05-05 18:44 | -20.36856 | -41.37559 | 19307 ft | 354 kts | 345° |
| 2026-05-05 18:44 | -20.34475 | -41.38216 | 19955 ft | 353 kts | 345° |
| 2026-05-05 18:45 | -20.32057 | -41.38884 | 20154 ft | 368 kts | 345° |
| 2026-05-05 18:45 | -20.29512 | -41.39587 | 20169 ft | 387 kts | 345° |
| 2026-05-05 18:45 | -20.26810 | -41.40331 | 20191 ft | 403 kts | 345° |
| 2026-05-05 18:45 | -20.24052 | -41.41092 | 20251 ft | 415 kts | 345° |
| 2026-05-05 18:46 | -20.21253 | -41.41860 | 20693 ft | 415 kts | 345° |
| 2026-05-05 18:46 | -20.18457 | -41.42632 | 21153 ft | 415 kts | 345° |
| 2026-05-05 18:46 | -20.15662 | -41.43402 | 21593 ft | 415 kts | 345° |
| 2026-05-05 18:46 | -20.12866 | -41.44170 | 22077 ft | 415 kts | 345° |
| 2026-05-05 18:47 | -20.10074 | -41.44940 | 22563 ft | 415 kts | 344° |
| 2026-05-05 18:47 | -20.07277 | -41.45707 | 23080 ft | 414 kts | 344° |
| 2026-05-05 18:47 | -20.04486 | -41.46473 | 23604 ft | 414 kts | 344° |
| 2026-05-05 18:47 | -20.01697 | -41.47244 | 24073 ft | 413 kts | 344° |
| 2026-05-05 18:48 | -19.98919 | -41.48003 | 24541 ft | 412 kts | 344° |
| 2026-05-05 18:48 | -19.96146 | -41.48766 | 25030 ft | 411 kts | 344° |
| 2026-05-05 18:48 | -19.93379 | -41.49524 | 25542 ft | 410 kts | 343° |
| 2026-05-05 18:48 | -19.90622 | -41.50282 | 26051 ft | 408 kts | 343° |
| 2026-05-05 18:49 | -19.87874 | -41.51035 | 26559 ft | 407 kts | 343° |
| 2026-05-05 18:49 | -19.85132 | -41.51786 | 27083 ft | 406 kts | 343° |
| 2026-05-05 18:49 | -19.82317 | -41.52125 | 27580 ft | 410 kts | 2° |
| 2026-05-05 18:49 | -19.79528 | -41.51515 | 28107 ft | 413 kts | 20° |
| 2026-05-05 18:50 | -19.76960 | -41.50152 | 28637 ft | 412 kts | 27° |
| 2026-05-05 18:50 | -19.74456 | -41.48671 | 29160 ft | 412 kts | 29° |
| 2026-05-05 18:50 | -19.71973 | -41.47143 | 29660 ft | 412 kts | 28° |
| 2026-05-05 18:50 | -19.69471 | -41.45666 | 30191 ft | 411 kts | 27° |
| 2026-05-05 18:51 | -19.66922 | -41.44189 | 30222 ft | 424 kts | 27° |
| 2026-05-05 18:51 | -19.64304 | -41.42655 | 30232 ft | 436 kts | 28° |
| 2026-05-05 18:51 | -19.58890 | -41.39449 | 30265 ft | 454 kts | 27° |
| 2026-05-05 18:52 | -19.53278 | -41.36157 | 30363 ft | 465 kts | 27° |
| 2026-05-05 18:52 | -19.50453 | -41.34492 | 30605 ft | 465 kts | 27° |
| 2026-05-05 18:52 | -19.47625 | -41.32827 | 30837 ft | 464 kts | 27° |
| 2026-05-05 18:53 | -19.44789 | -41.31163 | 31061 ft | 464 kts | 27° |
| 2026-05-05 18:53 | -19.41969 | -41.29506 | 31279 ft | 464 kts | 27° |
| 2026-05-05 18:53 | -19.39148 | -41.27849 | 31479 ft | 464 kts | 27° |
| 2026-05-05 18:53 | -19.36322 | -41.26192 | 31701 ft | 464 kts | 27° |
| 2026-05-05 18:54 | -19.33496 | -41.24536 | 31898 ft | 464 kts | 26° |
| 2026-05-05 18:54 | -19.30671 | -41.22879 | 32108 ft | 464 kts | 26° |
| 2026-05-05 18:54 | -19.27840 | -41.21223 | 32317 ft | 463 kts | 26° |
| 2026-05-05 18:54 | -19.25018 | -41.19569 | 32551 ft | 463 kts | 26° |
| 2026-05-05 18:55 | -19.22192 | -41.17917 | 32770 ft | 463 kts | 26° |
| 2026-05-05 18:55 | -19.19373 | -41.16267 | 32992 ft | 462 kts | 26° |
| 2026-05-05 18:55 | -19.16562 | -41.14623 | 33214 ft | 462 kts | 26° |
| 2026-05-05 18:55 | -19.13739 | -41.12974 | 33447 ft | 462 kts | 26° |
| 2026-05-05 18:56 | -19.10927 | -41.11330 | 33691 ft | 461 kts | 26° |
| 2026-05-05 18:56 | -19.08115 | -41.09687 | 33910 ft | 462 kts | 26° |
| 2026-05-05 18:56 | -19.05333 | -41.08065 | 34156 ft | 461 kts | 26° |
| 2026-05-05 18:56 | -19.02487 | -41.06402 | 34397 ft | 461 kts | 25° |
| 2026-05-05 18:57 | -18.99682 | -41.04764 | 34603 ft | 461 kts | 26° |
| 2026-05-05 18:57 | -18.96908 | -41.03145 | 34811 ft | 461 kts | 26° |
| 2026-05-05 18:57 | -18.94098 | -41.01505 | 35012 ft | 461 kts | 26° |
| 2026-05-05 18:57 | -18.91307 | -40.99876 | 35219 ft | 460 kts | 25° |
| 2026-05-05 18:58 | -18.88486 | -40.98234 | 35437 ft | 460 kts | 25° |
| 2026-05-05 18:58 | -18.85682 | -40.96599 | 35614 ft | 460 kts | 25° |
| 2026-05-05 18:58 | -18.82878 | -40.94965 | 35772 ft | 460 kts | 26° |
| 2026-05-05 18:58 | -18.80077 | -40.93332 | 36024 ft | 459 kts | 26° |
| 2026-05-05 18:59 | -18.77282 | -40.91708 | 36193 ft | 459 kts | 25° |
| 2026-05-05 18:59 | -18.74479 | -40.90076 | 36360 ft | 460 kts | 25° |
| 2026-05-05 18:59 | -18.71672 | -40.88444 | 36541 ft | 459 kts | 25° |
| 2026-05-05 18:59 | -18.68875 | -40.86816 | 36716 ft | 459 kts | 25° |
| 2026-05-05 19:00 | -18.66071 | -40.85186 | 36893 ft | 459 kts | 25° |
| 2026-05-05 19:00 | -18.63274 | -40.83565 | 37068 ft | 459 kts | 25° |
| 2026-05-05 19:00 | -18.60481 | -40.81940 | 37222 ft | 459 kts | 25° |
| 2026-05-05 19:00 | -18.57682 | -40.80313 | 37382 ft | 459 kts | 25° |
| 2026-05-05 19:01 | -18.54881 | -40.78691 | 37549 ft | 459 kts | 25° |
| 2026-05-05 19:01 | -18.52080 | -40.77065 | 37728 ft | 459 kts | 25° |
| 2026-05-05 19:01 | -18.49279 | -40.75440 | 37895 ft | 459 kts | 25° |
| 2026-05-05 19:01 | -18.46473 | -40.73814 | 38042 ft | 460 kts | 25° |
| 2026-05-05 19:02 | -18.43677 | -40.72195 | 38235 ft | 459 kts | 25° |
| 2026-05-05 19:02 | -18.40869 | -40.70566 | 38406 ft | 459 kts | 25° |
| 2026-05-05 19:02 | -18.38069 | -40.68945 | 38577 ft | 459 kts | 25° |
| 2026-05-05 19:02 | -18.35272 | -40.67330 | 38754 ft | 459 kts | 25° |
| 2026-05-05 19:03 | -18.32461 | -40.65704 | 38920 ft | 459 kts | 26° |
| 2026-05-05 19:03 | -18.29659 | -40.64083 | 39071 ft | 459 kts | 25° |
| 2026-05-05 19:03 | -18.26859 | -40.62466 | 39234 ft | 459 kts | 25° |
| 2026-05-05 19:03 | -18.24065 | -40.60852 | 39388 ft | 459 kts | 25° |
| 2026-05-05 19:04 | -18.21263 | -40.59234 | 39547 ft | 458 kts | 25° |
| 2026-05-05 19:04 | -18.19407 | -40.58163 | 39640 ft | 458 kts | 25° |
| 2026-05-05 19:04 | -18.16616 | -40.56551 | 39799 ft | 458 kts | 25° |
| 2026-05-05 19:04 | -18.13819 | -40.54939 | 39959 ft | 458 kts | 25° |
| 2026-05-05 19:05 | -18.11019 | -40.53325 | 40106 ft | 458 kts | 25° |
| 2026-05-05 19:05 | -18.08227 | -40.51715 | 40264 ft | 458 kts | 25° |
| 2026-05-05 19:05 | -18.05431 | -40.50105 | 40414 ft | 458 kts | 25° |
| 2026-05-05 19:05 | -18.02642 | -40.48497 | 40570 ft | 457 kts | 25° |
| 2026-05-05 19:06 | -17.99844 | -40.46887 | 40725 ft | 457 kts | 25° |
| 2026-05-05 19:06 | -17.97092 | -40.45303 | 40877 ft | 457 kts | 25° |
| 2026-05-05 19:06 | -17.94271 | -40.43679 | 41022 ft | 457 kts | 25° |
| 2026-05-05 19:06 | -17.91477 | -40.42074 | 41074 ft | 459 kts | 25° |
| 2026-05-05 19:07 | -17.85837 | -40.38832 | 41101 ft | 463 kts | 25° |
| 2026-05-05 19:07 | -17.80191 | -40.35522 | 41122 ft | 468 kts | 30° |
| 2026-05-05 19:08 | -17.75191 | -40.31109 | 41122 ft | 473 kts | 45° |
| 2026-05-05 19:08 | -17.70828 | -40.25942 | 41128 ft | 471 kts | 46° |
| 2026-05-05 19:09 | -17.66474 | -40.20816 | 41129 ft | 470 kts | 46° |
| 2026-05-05 19:09 | -17.62142 | -40.15695 | 41126 ft | 468 kts | 46° |
| 2026-05-05 19:10 | -17.57815 | -40.10598 | 41127 ft | 467 kts | 46° |
| 2026-05-05 19:10 | -17.53503 | -40.05514 | 41125 ft | 466 kts | 46° |
| 2026-05-05 19:11 | -17.49195 | -40.00443 | 41124 ft | 465 kts | 46° |
| 2026-05-05 19:11 | -17.44743 | -39.95527 | 41128 ft | 464 kts | 38° |
| 2026-05-05 19:12 | -17.39393 | -39.91807 | 41127 ft | 460 kts | 22° |
| 2026-05-05 19:12 | -17.33521 | -39.89129 | 41130 ft | 461 kts | 19° |
| 2026-05-05 19:13 | -17.27613 | -39.86454 | 41139 ft | 463 kts | 19° |
| 2026-05-05 19:13 | -17.21681 | -39.83783 | 41135 ft | 465 kts | 19° |
| 2026-05-05 19:14 | -17.15731 | -39.81099 | 41137 ft | 466 kts | 19° |
| 2026-05-05 19:14 | -17.09786 | -39.78421 | 41137 ft | 465 kts | 19° |
| 2026-05-05 19:15 | -17.03839 | -39.75744 | 41134 ft | 465 kts | 19° |
| 2026-05-05 19:15 | -16.97883 | -39.73066 | 41130 ft | 466 kts | 19° |
| 2026-05-05 19:16 | -16.91924 | -39.70387 | 41128 ft | 467 kts | 19° |
| 2026-05-05 19:16 | -16.85951 | -39.67704 | 41132 ft | 468 kts | 19° |
| 2026-05-05 19:17 | -16.79996 | -39.65032 | 41127 ft | 468 kts | 19° |
| 2026-05-05 19:17 | -16.74004 | -39.62343 | 41120 ft | 469 kts | 19° |
| 2026-05-05 19:18 | -16.68003 | -39.59654 | 41115 ft | 469 kts | 19° |
| 2026-05-05 19:18 | -16.62000 | -39.56964 | 41115 ft | 469 kts | 19° |
| 2026-05-05 19:19 | -16.56002 | -39.54279 | 41108 ft | 469 kts | 19° |
| 2026-05-05 19:19 | -16.49999 | -39.51594 | 41111 ft | 469 kts | 19° |
| 2026-05-05 19:20 | -16.43990 | -39.48909 | 41106 ft | 469 kts | 19° |
| 2026-05-05 19:20 | -16.37982 | -39.46223 | 41109 ft | 469 kts | 19° |
| 2026-05-05 19:21 | -16.31977 | -39.43542 | 41110 ft | 469 kts | 19° |
| 2026-05-05 19:21 | -16.25979 | -39.40867 | 41103 ft | 469 kts | 19° |
| 2026-05-05 19:22 | -16.19978 | -39.38193 | 41099 ft | 469 kts | 19° |
| 2026-05-05 19:22 | -16.13975 | -39.35517 | 41098 ft | 469 kts | 19° |
| 2026-05-05 19:23 | -16.07983 | -39.32849 | 41104 ft | 468 kts | 19° |
| 2026-05-05 19:23 | -16.01993 | -39.30185 | 41102 ft | 468 kts | 19° |
| 2026-05-05 19:24 | -15.96002 | -39.27520 | 41091 ft | 468 kts | 19° |
| 2026-05-05 19:24 | -15.90006 | -39.24856 | 41095 ft | 468 kts | 19° |
| 2026-05-05 19:25 | -15.84013 | -39.22195 | 41094 ft | 468 kts | 19° |
| 2026-05-05 19:25 | -15.78020 | -39.19534 | 41088 ft | 468 kts | 19° |
| 2026-05-05 19:26 | -15.72030 | -39.16880 | 41089 ft | 468 kts | 19° |
| 2026-05-05 19:26 | -15.66038 | -39.14222 | 41086 ft | 468 kts | 19° |
| 2026-05-05 19:27 | -15.60048 | -39.11569 | 41085 ft | 468 kts | 19° |
| 2026-05-05 19:27 | -15.54060 | -39.08919 | 41084 ft | 468 kts | 19° |
| 2026-05-05 19:28 | -15.48079 | -39.06274 | 41087 ft | 467 kts | 19° |
| 2026-05-05 19:28 | -15.42096 | -39.03627 | 41084 ft | 467 kts | 19° |
| 2026-05-05 19:29 | -15.36111 | -39.00984 | 41081 ft | 467 kts | 18° |
| 2026-05-05 19:29 | -15.30136 | -38.98346 | 41080 ft | 467 kts | 18° |
| 2026-05-05 19:30 | -15.24154 | -38.95707 | 41078 ft | 467 kts | 18° |
| 2026-05-05 19:30 | -15.18212 | -38.93085 | 41076 ft | 466 kts | 18° |
| 2026-05-05 19:31 | -15.12058 | -38.90959 | 41079 ft | 463 kts | 13° |
| 2026-05-05 19:31 | -15.05913 | -38.88943 | 41078 ft | 462 kts | 12° |
| 2026-05-05 19:32 | -14.99770 | -38.86958 | 41079 ft | 462 kts | 12° |
| 2026-05-05 19:32 | -14.93677 | -38.84975 | 41084 ft | 462 kts | 13° |
| 2026-05-05 19:33 | -14.87533 | -38.82983 | 41086 ft | 462 kts | 12° |
| 2026-05-05 19:33 | -14.81397 | -38.80994 | 41082 ft | 462 kts | 12° |
| 2026-05-05 19:34 | -14.75249 | -38.79001 | 41079 ft | 462 kts | 12° |
| 2026-05-05 19:35 | -14.66036 | -38.76018 | 41071 ft | 462 kts | 12° |
| 2026-05-05 19:35 | -14.59903 | -38.74033 | 41067 ft | 462 kts | 12° |
| 2026-05-05 19:36 | -14.53769 | -38.72045 | 41070 ft | 462 kts | 12° |
| 2026-05-05 19:36 | -14.47640 | -38.70063 | 41071 ft | 462 kts | 12° |
| 2026-05-05 19:37 | -14.41511 | -38.68081 | 41067 ft | 462 kts | 12° |
| 2026-05-05 19:37 | -14.35376 | -38.66098 | 41064 ft | 462 kts | 12° |
| 2026-05-05 19:38 | -14.29244 | -38.64117 | 41064 ft | 462 kts | 12° |
| 2026-05-05 19:38 | -14.23113 | -38.62137 | 41061 ft | 462 kts | 12° |
| 2026-05-05 19:39 | -14.18013 | -38.60492 | 41063 ft | 462 kts | 12° |
| 2026-05-05 19:39 | -14.11873 | -38.58513 | 41061 ft | 462 kts | 12° |
| 2026-05-05 19:40 | -14.05743 | -38.56537 | 41061 ft | 462 kts | 12° |
| 2026-05-05 19:40 | -13.99613 | -38.54562 | 41060 ft | 461 kts | 12° |
| 2026-05-05 19:41 | -13.93481 | -38.52587 | 41063 ft | 461 kts | 12° |
| 2026-05-05 19:41 | -13.87323 | -38.50707 | 41061 ft | 459 kts | 9° |
| 2026-05-05 19:42 | -13.81137 | -38.49046 | 41057 ft | 459 kts | 10° |
| 2026-05-05 19:42 | -13.74994 | -38.47381 | 41060 ft | 459 kts | 9° |
| 2026-05-05 19:43 | -13.68810 | -38.45718 | 41055 ft | 459 kts | 9° |
| 2026-05-05 19:43 | -13.62626 | -38.44049 | 41056 ft | 459 kts | 9° |
| 2026-05-05 19:44 | -13.56444 | -38.42385 | 41054 ft | 459 kts | 9° |
| 2026-05-05 19:44 | -13.50268 | -38.40721 | 41056 ft | 459 kts | 9° |
| 2026-05-05 19:45 | -13.44086 | -38.39058 | 41055 ft | 459 kts | 9° |
| 2026-05-05 19:45 | -13.37917 | -38.37400 | 41055 ft | 459 kts | 9° |
| 2026-05-05 19:46 | -13.31721 | -38.35734 | 41052 ft | 459 kts | 9° |
| 2026-05-05 19:46 | -13.26136 | -38.34233 | 41052 ft | 458 kts | 9° |
| 2026-05-05 19:47 | -13.19950 | -38.32572 | 41051 ft | 458 kts | 9° |
| 2026-05-05 19:47 | -13.13776 | -38.30915 | 41042 ft | 458 kts | 9° |
| 2026-05-05 19:48 | -13.07610 | -38.29262 | 41037 ft | 458 kts | 9° |
| 2026-05-05 19:48 | -13.01437 | -38.27608 | 41044 ft | 458 kts | 9° |
| 2026-05-05 19:49 | -12.95280 | -38.25958 | 41039 ft | 458 kts | 9° |
| 2026-05-05 19:49 | -12.89150 | -38.24318 | 41042 ft | 458 kts | 9° |
| 2026-05-05 19:50 | -12.82983 | -38.22669 | 41038 ft | 458 kts | 9° |
| 2026-05-05 19:50 | -12.76818 | -38.21020 | 41042 ft | 458 kts | 9° |
| 2026-05-05 19:51 | -12.70653 | -38.19373 | 41046 ft | 457 kts | 9° |
| 2026-05-05 19:51 | -12.64489 | -38.17725 | 41049 ft | 457 kts | 9° |
| 2026-05-05 19:52 | -12.58335 | -38.16082 | 41051 ft | 457 kts | 9° |
| 2026-05-05 19:52 | -12.52173 | -38.14439 | 41051 ft | 457 kts | 9° |
| 2026-05-05 19:53 | -12.46012 | -38.12794 | 41050 ft | 457 kts | 9° |
| 2026-05-05 19:53 | -12.39849 | -38.11152 | 41050 ft | 457 kts | 9° |
| 2026-05-05 19:54 | -12.33689 | -38.09509 | 41050 ft | 457 kts | 9° |
| 2026-05-05 19:54 | -12.27680 | -38.07244 | 41045 ft | 465 kts | 22° |
| 2026-05-05 19:55 | -12.22217 | -38.03608 | 41049 ft | 470 kts | 32° |
| 2026-05-05 19:55 | -12.16880 | -37.99727 | 41051 ft | 470 kts | 31° |
| 2026-05-05 19:56 | -12.11559 | -37.95840 | 41048 ft | 470 kts | 31° |
| 2026-05-05 19:56 | -12.06234 | -37.91959 | 41047 ft | 470 kts | 31° |
| 2026-05-05 19:57 | -12.00894 | -37.88067 | 41047 ft | 470 kts | 31° |
| 2026-05-05 19:57 | -11.95562 | -37.84183 | 41042 ft | 470 kts | 31° |
| 2026-05-05 19:58 | -11.90259 | -37.80323 | 41035 ft | 470 kts | 31° |
| 2026-05-05 19:58 | -11.84925 | -37.76444 | 41039 ft | 470 kts | 31° |
| 2026-05-05 19:59 | -11.79582 | -37.72578 | 41042 ft | 470 kts | 31° |
| 2026-05-05 19:59 | -11.74212 | -37.68685 | 41038 ft | 470 kts | 31° |
| 2026-05-05 20:00 | -11.68882 | -37.64826 | 41038 ft | 470 kts | 31° |
| 2026-05-05 20:00 | -11.63549 | -37.60967 | 41031 ft | 470 kts | 31° |
| 2026-05-05 20:01 | -11.58217 | -37.57110 | 41037 ft | 470 kts | 31° |
| 2026-05-05 20:01 | -11.52883 | -37.53252 | 41032 ft | 470 kts | 31° |
| 2026-05-05 20:02 | -11.47550 | -37.49397 | 41036 ft | 469 kts | 31° |
| 2026-05-05 20:02 | -11.42221 | -37.45548 | 41035 ft | 469 kts | 31° |
| 2026-05-05 20:03 | -11.36892 | -37.41702 | 41038 ft | 469 kts | 31° |
| 2026-05-05 20:03 | -11.31556 | -37.37849 | 41035 ft | 469 kts | 32° |
| 2026-05-05 20:04 | -11.26254 | -37.34024 | 41034 ft | 469 kts | 31° |
| 2026-05-05 20:04 | -11.20926 | -37.30183 | 41030 ft | 469 kts | 32° |
| 2026-05-05 20:05 | -11.15598 | -37.26343 | 41022 ft | 469 kts | 32° |
| 2026-05-05 20:05 | -11.10268 | -37.22503 | 41018 ft | 469 kts | 32° |
| 2026-05-05 20:06 | -11.04940 | -37.18668 | 41016 ft | 469 kts | 32° |
| 2026-05-05 20:06 | -10.99616 | -37.14835 | 41014 ft | 468 kts | 32° |
| 2026-05-05 20:07 | -10.94288 | -37.11017 | 41014 ft | 468 kts | 32° |
| 2026-05-05 20:07 | -10.88964 | -37.07202 | 41014 ft | 468 kts | 32° |
| 2026-05-05 20:08 | -10.83643 | -37.03392 | 41015 ft | 468 kts | 32° |
| 2026-05-05 20:08 | -10.78322 | -36.99583 | 41018 ft | 467 kts | 32° |
| 2026-05-05 20:09 | -10.73004 | -36.95775 | 41020 ft | 467 kts | 32° |
| 2026-05-05 20:09 | -10.67702 | -36.91984 | 41021 ft | 467 kts | 32° |
| 2026-05-05 20:10 | -10.62383 | -36.88181 | 41024 ft | 466 kts | 32° |
| 2026-05-05 20:10 | -10.57071 | -36.84385 | 41024 ft | 466 kts | 32° |
| 2026-05-05 20:11 | -10.52014 | -36.80773 | 41020 ft | 466 kts | 32° |
| 2026-05-05 20:11 | -10.46709 | -36.76983 | 41019 ft | 465 kts | 32° |
| 2026-05-05 20:12 | -10.41394 | -36.73190 | 41019 ft | 465 kts | 32° |
| 2026-05-05 20:12 | -10.36099 | -36.69411 | 41019 ft | 465 kts | 32° |
| 2026-05-05 20:13 | -10.30801 | -36.65634 | 41015 ft | 464 kts | 32° |
| 2026-05-05 20:13 | -10.25523 | -36.61872 | 41015 ft | 464 kts | 32° |
| 2026-05-05 20:14 | -10.20244 | -36.58109 | 41017 ft | 464 kts | 32° |
| 2026-05-05 20:14 | -10.14963 | -36.54348 | 41016 ft | 463 kts | 32° |
| 2026-05-05 20:15 | -10.09675 | -36.50600 | 41019 ft | 463 kts | 32° |
| 2026-05-05 20:15 | -10.04398 | -36.46860 | 41019 ft | 463 kts | 32° |
| 2026-05-05 20:16 | -9.99124 | -36.43122 | 41016 ft | 462 kts | 32° |
| 2026-05-05 20:16 | -9.93844 | -36.39384 | 41017 ft | 462 kts | 32° |
| 2026-05-05 20:17 | -9.88533 | -36.35625 | 41019 ft | 462 kts | 32° |
| 2026-05-05 20:17 | -9.83256 | -36.31890 | 41022 ft | 462 kts | 32° |
| 2026-05-05 20:18 | -9.78023 | -36.28188 | 41022 ft | 462 kts | 32° |
| 2026-05-05 20:18 | -9.72746 | -36.24457 | 41020 ft | 461 kts | 32° |
| 2026-05-05 20:19 | -9.67479 | -36.20736 | 41020 ft | 461 kts | 32° |
| 2026-05-05 20:19 | -9.62217 | -36.17018 | 41022 ft | 461 kts | 32° |
| 2026-05-05 20:20 | -9.56958 | -36.13303 | 41022 ft | 461 kts | 32° |
| 2026-05-05 20:20 | -9.52586 | -36.10217 | 41018 ft | 460 kts | 32° |
| 2026-05-05 20:21 | -9.46472 | -36.05903 | 41020 ft | 460 kts | 32° |
| 2026-05-05 20:21 | -9.42065 | -36.02793 | 41018 ft | 460 kts | 32° |
| 2026-05-05 20:22 | -9.36845 | -35.99113 | 41017 ft | 460 kts | 32° |
| 2026-05-05 20:22 | -9.31599 | -35.95414 | 41021 ft | 460 kts | 32° |
| 2026-05-05 20:23 | -9.26348 | -35.91714 | 41022 ft | 460 kts | 32° |
| 2026-05-05 20:23 | -9.21096 | -35.88015 | 41021 ft | 459 kts | 32° |
| 2026-05-05 20:24 | -9.15849 | -35.84319 | 41021 ft | 459 kts | 32° |
| 2026-05-05 20:24 | -9.10607 | -35.80630 | 41026 ft | 459 kts | 32° |
| 2026-05-05 20:25 | -9.05360 | -35.76938 | 41028 ft | 459 kts | 32° |
| 2026-05-05 20:25 | -9.00126 | -35.73251 | 41025 ft | 458 kts | 32° |
| 2026-05-05 20:26 | -8.94933 | -35.69487 | 41023 ft | 459 kts | 33° |
| 2026-05-05 20:26 | -8.89720 | -35.65755 | 41023 ft | 458 kts | 32° |
| 2026-05-05 20:27 | -8.84519 | -35.62015 | 41022 ft | 458 kts | 33° |
| 2026-05-05 20:27 | -8.79329 | -35.58288 | 41018 ft | 458 kts | 33° |
| 2026-05-05 20:28 | -8.74107 | -35.54541 | 41016 ft | 458 kts | 33° |
| 2026-05-05 20:28 | -8.68939 | -35.50834 | 41015 ft | 458 kts | 33° |
| 2026-05-05 20:29 | -8.63733 | -35.47100 | 41015 ft | 458 kts | 33° |
| 2026-05-05 20:29 | -8.58497 | -35.43344 | 41012 ft | 458 kts | 33° |
| 2026-05-05 20:30 | -8.53291 | -35.39614 | 41014 ft | 458 kts | 33° |
| 2026-05-05 20:30 | -8.48089 | -35.35887 | 41011 ft | 458 kts | 33° |
| 2026-05-05 20:31 | -8.42891 | -35.32162 | 41010 ft | 458 kts | 33° |
| 2026-05-05 20:31 | -8.37694 | -35.28443 | 41010 ft | 458 kts | 33° |
| 2026-05-05 20:32 | -8.32500 | -35.24724 | 41008 ft | 458 kts | 33° |
| 2026-05-05 20:32 | -8.27319 | -35.21017 | 41004 ft | 458 kts | 33° |
| 2026-05-05 20:33 | -8.22103 | -35.17287 | 40996 ft | 458 kts | 33° |
| 2026-05-05 20:33 | -8.16924 | -35.13581 | 40991 ft | 457 kts | 33° |
| 2026-05-05 20:34 | -8.11717 | -35.09861 | 40990 ft | 457 kts | 33° |
| 2026-05-05 20:34 | -8.06546 | -35.06165 | 40986 ft | 457 kts | 33° |
| 2026-05-05 20:35 | -8.01338 | -35.02446 | 40989 ft | 457 kts | 33° |
| 2026-05-05 20:35 | -7.96155 | -34.98744 | 40988 ft | 457 kts | 33° |
| 2026-05-05 20:36 | -7.90975 | -34.95045 | 40990 ft | 457 kts | 33° |
| 2026-05-05 20:36 | -7.85759 | -34.91323 | 40987 ft | 457 kts | 33° |
| 2026-05-05 20:37 | -7.80567 | -34.87620 | 40988 ft | 457 kts | 33° |
| 2026-05-05 20:37 | -7.75368 | -34.83911 | 40992 ft | 457 kts | 33° |
| 2026-05-05 20:38 | -7.70190 | -34.80218 | 40990 ft | 457 kts | 33° |
| 2026-05-05 20:38 | -7.65025 | -34.76536 | 40987 ft | 457 kts | 33° |
| 2026-05-05 20:39 | -7.59817 | -34.72826 | 40988 ft | 457 kts | 33° |
| 2026-05-05 20:39 | -7.54639 | -34.69138 | 40987 ft | 456 kts | 33° |
| 2026-05-05 20:40 | -7.49448 | -34.65440 | 40989 ft | 456 kts | 33° |
| 2026-05-05 20:40 | -7.44290 | -34.61767 | 40984 ft | 456 kts | 33° |
| 2026-05-05 20:41 | -7.39098 | -34.58072 | 40986 ft | 456 kts | 33° |
| 2026-05-05 20:41 | -7.33884 | -34.54362 | 40983 ft | 456 kts | 33° |
| 2026-05-05 20:42 | -7.28695 | -34.50671 | 40984 ft | 456 kts | 33° |
| 2026-05-05 20:42 | -7.23529 | -34.46997 | 40982 ft | 457 kts | 33° |
| 2026-05-05 20:43 | -7.18353 | -34.43318 | 40982 ft | 457 kts | 33° |
| 2026-05-05 20:43 | -7.13134 | -34.39608 | 40982 ft | 457 kts | 33° |
| 2026-05-05 20:44 | -7.07965 | -34.35935 | 40982 ft | 457 kts | 33° |
| 2026-05-05 20:44 | -7.02768 | -34.32245 | 40977 ft | 457 kts | 33° |
| 2026-05-05 20:45 | -6.94968 | -34.26706 | 40977 ft | 457 kts | 33° |
| 2026-05-05 20:45 | -6.89769 | -34.23015 | 40977 ft | 457 kts | 33° |
| 2026-05-05 20:46 | -6.84608 | -34.19353 | 40978 ft | 457 kts | 33° |
| 2026-05-05 20:46 | -6.79410 | -34.15666 | 40978 ft | 457 kts | 33° |
| 2026-05-05 20:47 | -6.74212 | -34.11979 | 40977 ft | 457 kts | 33° |
| 2026-05-05 20:47 | -6.69015 | -34.08293 | 40973 ft | 457 kts | 33° |
| 2026-05-05 20:48 | -6.63811 | -34.04606 | 40978 ft | 457 kts | 32° |
| 2026-05-05 20:48 | -6.58252 | -34.01543 | 40979 ft | 446 kts | 24° |
| 2026-05-05 20:49 | -6.55515 | -34.00156 | 40977 ft | 433 kts | 24° |
| 2026-05-05 20:49 | -6.52863 | -33.98811 | 40973 ft | 422 kts | 24° |
| 2026-05-05 20:49 | -6.50300 | -33.97515 | 40977 ft | 411 kts | 24° |
| 2026-05-05 20:49 | -6.47767 | -33.96236 | 40973 ft | 404 kts | 24° |
| 2026-05-05 20:50 | -6.42799 | -33.93723 | 40972 ft | 395 kts | 24° |
| 2026-05-05 20:50 | -6.37940 | -33.91265 | 40971 ft | 387 kts | 23° |
| 2026-05-05 20:51 | -6.33161 | -33.88850 | 40976 ft | 381 kts | 23° |
| 2026-05-05 20:51 | -6.28414 | -33.86452 | 40844 ft | 384 kts | 23° |
| 2026-05-05 20:52 | -6.26016 | -33.85240 | 40524 ft | 387 kts | 23° |
| 2026-05-05 20:52 | -6.23609 | -33.84023 | 40169 ft | 388 kts | 23° |
| 2026-05-05 20:52 | -6.21190 | -33.82801 | 39805 ft | 390 kts | 23° |
| 2026-05-05 20:52 | -6.18763 | -33.81574 | 39437 ft | 391 kts | 23° |
| 2026-05-05 20:53 | -6.16329 | -33.80345 | 39077 ft | 392 kts | 23° |
| 2026-05-05 20:53 | -6.13898 | -33.79117 | 38706 ft | 392 kts | 23° |
| 2026-05-05 20:53 | -6.11426 | -33.77867 | 38294 ft | 392 kts | 23° |
| 2026-05-05 20:53 | -6.09027 | -33.76657 | 37931 ft | 390 kts | 23° |
| 2026-05-05 20:54 | -6.06574 | -33.75417 | 37545 ft | 389 kts | 23° |
| 2026-05-05 20:54 | -6.04161 | -33.74198 | 37184 ft | 387 kts | 24° |
| 2026-05-05 20:54 | -6.01765 | -33.72989 | 36820 ft | 383 kts | 24° |
| 2026-05-05 20:54 | -5.99393 | -33.71791 | 36459 ft | 381 kts | 24° |
| 2026-05-05 20:55 | -5.97032 | -33.70600 | 36103 ft | 378 kts | 24° |
| 2026-05-05 20:55 | -5.94685 | -33.69415 | 35745 ft | 376 kts | 24° |
| 2026-05-05 20:55 | -5.92380 | -33.68252 | 35392 ft | 374 kts | 24° |
| 2026-05-05 20:55 | -5.90063 | -33.67082 | 35041 ft | 373 kts | 24° |
| 2026-05-05 20:56 | -5.87715 | -33.65898 | 34695 ft | 371 kts | 24° |
| 2026-05-05 20:56 | -5.85416 | -33.64738 | 34350 ft | 370 kts | 24° |
| 2026-05-05 20:56 | -5.83146 | -33.63592 | 34008 ft | 369 kts | 24° |
| 2026-05-05 20:56 | -5.80850 | -33.62435 | 33628 ft | 367 kts | 24° |
| 2026-05-05 20:57 | -5.78573 | -33.61286 | 33275 ft | 365 kts | 24° |
| 2026-05-05 20:57 | -5.76317 | -33.60148 | 32930 ft | 362 kts | 24° |
| 2026-05-05 20:57 | -5.74831 | -33.59398 | 32704 ft | 360 kts | 24° |
| 2026-05-05 20:57 | -5.72597 | -33.58272 | 32364 ft | 357 kts | 24° |
| 2026-05-05 20:58 | -5.70387 | -33.57157 | 32030 ft | 354 kts | 25° |
| 2026-05-05 20:58 | -5.68191 | -33.56050 | 31695 ft | 352 kts | 25° |
| 2026-05-05 20:58 | -5.66011 | -33.54951 | 31367 ft | 350 kts | 25° |
| 2026-05-05 20:58 | -5.63813 | -33.53843 | 31034 ft | 348 kts | 25° |
| 2026-05-05 20:59 | -5.61687 | -33.52771 | 30710 ft | 346 kts | 25° |
| 2026-05-05 20:59 | -5.59543 | -33.51691 | 30386 ft | 344 kts | 25° |
| 2026-05-05 20:59 | -5.57409 | -33.50615 | 30056 ft | 342 kts | 25° |
| 2026-05-05 20:59 | -5.55290 | -33.49547 | 29701 ft | 340 kts | 25° |
| 2026-05-05 21:00 | -5.53182 | -33.48485 | 29375 ft | 337 kts | 25° |
| 2026-05-05 21:00 | -5.51099 | -33.47436 | 29060 ft | 334 kts | 25° |
| 2026-05-05 21:00 | -5.49029 | -33.46393 | 28747 ft | 331 kts | 26° |
| 2026-05-05 21:00 | -5.46974 | -33.45358 | 28438 ft | 329 kts | 26° |
| 2026-05-05 21:01 | -5.44927 | -33.44326 | 28125 ft | 327 kts | 26° |
| 2026-05-05 21:01 | -5.42907 | -33.43309 | 27821 ft | 325 kts | 26° |
| 2026-05-05 21:01 | -5.40881 | -33.42289 | 27146 ft | 320 kts | 26° |
| 2026-05-05 21:01 | -5.38931 | -33.41306 | 26445 ft | 307 kts | 26° |
| 2026-05-05 21:02 | -5.37050 | -33.40360 | 25777 ft | 297 kts | 27° |
| 2026-05-05 21:02 | -5.35237 | -33.39446 | 25304 ft | 284 kts | 27° |
| 2026-05-05 21:02 | -5.33500 | -33.38572 | 25013 ft | 280 kts | 27° |
| 2026-05-05 21:02 | -5.31744 | -33.37687 | 24749 ft | 285 kts | 27° |
| 2026-05-05 21:03 | -5.29961 | -33.36789 | 24494 ft | 289 kts | 27° |
| 2026-05-05 21:03 | -5.28145 | -33.35876 | 24239 ft | 293 kts | 27° |
| 2026-05-05 21:03 | -5.26319 | -33.34956 | 23968 ft | 296 kts | 27° |
| 2026-05-05 21:03 | -5.24492 | -33.34036 | 23714 ft | 298 kts | 28° |
| 2026-05-05 21:04 | -5.22610 | -33.33089 | 23426 ft | 299 kts | 28° |
| 2026-05-05 21:04 | -5.20749 | -33.32153 | 23135 ft | 299 kts | 27° |
| 2026-05-05 21:04 | -5.18916 | -33.31230 | 22870 ft | 298 kts | 27° |
| 2026-05-05 21:04 | -5.17060 | -33.30296 | 22606 ft | 298 kts | 28° |
| 2026-05-05 21:05 | -5.15186 | -33.29353 | 22338 ft | 297 kts | 28° |
| 2026-05-05 21:05 | -5.13371 | -33.28440 | 22081 ft | 295 kts | 28° |
| 2026-05-05 21:05 | -5.11518 | -33.27507 | 21816 ft | 294 kts | 28° |
| 2026-05-05 21:05 | -5.09692 | -33.26589 | 21556 ft | 293 kts | 28° |
| 2026-05-05 21:06 | -5.07871 | -33.25673 | 21302 ft | 292 kts | 28° |
| 2026-05-05 21:06 | -5.06055 | -33.24760 | 21049 ft | 291 kts | 28° |
| 2026-05-05 21:06 | -5.04252 | -33.23852 | 20792 ft | 289 kts | 28° |
| 2026-05-05 21:06 | -5.02457 | -33.22949 | 20537 ft | 288 kts | 28° |
| 2026-05-05 21:07 | -5.00668 | -33.22050 | 20282 ft | 286 kts | 28° |
| 2026-05-05 21:07 | -4.98893 | -33.21158 | 20034 ft | 285 kts | 29° |
| 2026-05-05 21:07 | -4.97118 | -33.20265 | 19779 ft | 284 kts | 28° |
| 2026-05-05 21:07 | -4.95350 | -33.19375 | 19533 ft | 284 kts | 29° |
| 2026-05-05 21:08 | -4.93590 | -33.18491 | 19280 ft | 283 kts | 29° |
| 2026-05-05 21:08 | -4.91828 | -33.17604 | 19030 ft | 283 kts | 29° |
| 2026-05-05 21:08 | -4.90069 | -33.16720 | 18782 ft | 282 kts | 29° |
| 2026-05-05 21:08 | -4.88312 | -33.15837 | 18537 ft | 282 kts | 29° |
| 2026-05-05 21:09 | -4.86559 | -33.14956 | 18285 ft | 282 kts | 29° |
| 2026-05-05 21:09 | -4.84827 | -33.14085 | 18009 ft | 281 kts | 29° |
| 2026-05-05 21:09 | -4.83088 | -33.13212 | 17766 ft | 278 kts | 29° |
| 2026-05-05 21:09 | -4.81362 | -33.12344 | 17516 ft | 275 kts | 29° |
| 2026-05-05 21:10 | -4.79665 | -33.11491 | 17274 ft | 270 kts | 29° |
| 2026-05-05 21:10 | -4.78008 | -33.10660 | 17041 ft | 263 kts | 30° |
| 2026-05-05 21:10 | -4.76392 | -33.09847 | 16808 ft | 257 kts | 30° |
| 2026-05-05 21:10 | -4.74803 | -33.09049 | 16585 ft | 253 kts | 30° |
| 2026-05-05 21:11 | -4.73241 | -33.08263 | 16365 ft | 251 kts | 30° |
| 2026-05-05 21:11 | -4.71673 | -33.07474 | 16147 ft | 252 kts | 30° |
| 2026-05-05 21:11 | -4.70100 | -33.06684 | 15922 ft | 253 kts | 30° |
| 2026-05-05 21:11 | -4.68530 | -33.05896 | 15708 ft | 253 kts | 30° |
| 2026-05-05 21:12 | -4.66953 | -33.05103 | 15485 ft | 254 kts | 30° |
| 2026-05-05 21:12 | -4.65371 | -33.04308 | 15262 ft | 254 kts | 30° |
| 2026-05-05 21:12 | -4.63789 | -33.03514 | 15040 ft | 255 kts | 30° |
| 2026-05-05 21:12 | -4.62200 | -33.02716 | 14813 ft | 255 kts | 30° |
| 2026-05-05 21:13 | -4.60612 | -33.01918 | 14585 ft | 256 kts | 30° |
| 2026-05-05 21:13 | -4.59020 | -33.01118 | 14363 ft | 256 kts | 30° |
| 2026-05-05 21:13 | -4.57425 | -33.00317 | 14139 ft | 257 kts | 30° |
| 2026-05-05 21:13 | -4.55826 | -32.99515 | 13910 ft | 257 kts | 30° |
| 2026-05-05 21:14 | -4.54207 | -32.98701 | 13674 ft | 257 kts | 30° |
| 2026-05-05 21:14 | -4.52623 | -32.97905 | 13434 ft | 257 kts | 30° |
| 2026-05-05 21:14 | -4.51023 | -32.97104 | 13202 ft | 256 kts | 30° |
| 2026-05-05 21:14 | -4.49433 | -32.96303 | 12968 ft | 256 kts | 30° |
| 2026-05-05 21:15 | -4.47851 | -32.95511 | 12751 ft | 253 kts | 30° |
| 2026-05-05 21:15 | -4.46274 | -32.94719 | 12525 ft | 252 kts | 30° |
| 2026-05-05 21:15 | -4.44711 | -32.93933 | 12306 ft | 250 kts | 30° |
| 2026-05-05 21:15 | -4.43155 | -32.93153 | 12085 ft | 249 kts | 30° |
| 2026-05-05 21:16 | -4.41610 | -32.92377 | 11870 ft | 249 kts | 30° |
| 2026-05-05 21:16 | -4.40066 | -32.91601 | 11650 ft | 248 kts | 31° |
| 2026-05-05 21:16 | -4.38520 | -32.90826 | 11431 ft | 248 kts | 30° |